Aviation Digital Data Service (ADDS)

Output produced by METARs form (0047 UTC 21 November 2017)
found at http://www.aviationweather.gov/adds/metars/
 
GCLP 210030Z 28003KT 240V310 CAVOK 20/08 Q1017 NOSIG
TAF GCLP 202000Z 2021/2121 VRB04KT CAVOK TX24/2112Z TN19/2106Z
       
EGTE 210020Z VRB03KT 9999 FEW015 SCT035 11/09 Q1015
TAF EGTE 202258Z 2100/2109 20005KT 9999 SCT016 
     PROB30 
     TEMPO 2100/2102 9000 BKN014
       
EGGD 210020Z AUTO 23008KT 9999 OVC007 11/11 Q1013
TAF EGGD 202256Z 2100/2124 21008KT 9999 BKN006 
     TEMPO 2100/2103 0200 DZ FG BKN001 
     BECMG 2101/2104 SCT008 
     TEMPO 2104/2118 BKN008 
     BECMG 2118/2121 22018G28KT BKN008 
     TEMPO 2120/2124 8000 BKN004